createdAt,value
2019-02-27T00:00:50.022Z,99.90
2019-02-27T00:03:19.169Z,99.90
2019-02-27T00:05:47.806Z,99.90
2019-02-27T00:08:16.339Z,99.90
2019-02-27T00:10:44.975Z,99.90
2019-02-27T00:13:13.518Z,99.90
2019-02-27T00:15:42.156Z,99.90
2019-02-27T00:18:10.695Z,99.90
2019-02-27T00:23:07.727Z,99.90
2019-02-27T00:25:36.747Z,99.90
2019-02-27T00:28:05.568Z,99.90
2019-02-27T00:30:37.922Z,99.90
2019-02-27T00:33:04.665Z,99.90
2019-02-27T00:35:33.231Z,99.90
2019-02-27T00:38:01.771Z,99.90
2019-02-27T00:40:30.407Z,99.90
2019-02-27T00:45:27.555Z,99.90
2019-02-27T00:47:56.095Z,99.90
2019-02-27T00:50:24.655Z,99.90
2019-02-27T00:52:53.196Z,99.90
2019-02-27T00:55:21.768Z,99.90
2019-02-27T00:57:51.784Z,99.90
2019-02-27T01:00:20.723Z,99.90
2019-02-27T01:05:19.321Z,99.90
2019-02-27T01:07:47.929Z,99.90
2019-02-27T01:10:16.540Z,99.90
2019-02-27T01:12:45.175Z,99.90
2019-02-27T01:15:14.859Z,99.90
2019-02-27T01:17:43.760Z,99.90
2019-02-27T01:20:14.335Z,99.90
2019-02-27T01:22:42.976Z,99.90
2019-02-27T01:25:11.695Z,99.90
2019-02-27T01:30:16.567Z,99.90
2019-02-27T01:32:45.208Z,99.90
2019-02-27T01:35:17.548Z,99.90
2019-02-27T01:40:17.522Z,99.90
2019-02-27T01:42:44.968Z,99.90
2019-02-27T01:45:20.825Z,99.90
2019-02-27T01:47:45.951Z,99.90
2019-02-27T01:50:23.356Z,99.90
2019-02-27T01:52:51.923Z,99.90
2019-02-27T02:00:23.020Z,99.90
2019-02-27T02:02:48.775Z,99.90
2019-02-27T02:05:17.559Z,99.90
2019-02-27T02:07:48.034Z,99.90
2019-02-27T02:10:17.175Z,99.90
2019-02-27T02:12:48.652Z,99.90
2019-02-27T02:15:32.030Z,99.90
2019-02-27T02:26:25.644Z,99.90
2019-02-27T02:29:26.234Z,99.90
2019-02-27T02:32:09.782Z,99.90
2019-02-27T02:34:56.437Z,99.90
2019-02-27T02:37:53.738Z,99.90
2019-02-27T02:40:31.236Z,99.90
2019-02-27T02:43:18.212Z,99.90
2019-02-27T02:46:08.025Z,99.90
2019-02-27T02:48:40.870Z,99.90
2019-02-27T02:51:32.123Z,99.90
2019-02-27T02:59:34.657Z,99.90
2019-02-27T03:04:59.577Z,99.90
2019-02-27T03:07:44.457Z,99.90
2019-02-27T03:10:25.421Z,99.90
2019-02-27T03:13:05.772Z,99.90
2019-02-27T03:15:48.106Z,99.90
2019-02-27T03:18:34.676Z,99.90
2019-02-27T03:21:12.245Z,99.90
2019-02-27T03:26:23.684Z,99.90
2019-02-27T03:29:00.973Z,99.90
2019-02-27T03:31:35.334Z,99.90
2019-02-27T03:34:26.723Z,99.90
2019-02-27T03:37:13.131Z,99.90
2019-02-27T03:40:11.801Z,99.90
2019-02-27T03:42:52.224Z,99.90
2019-02-27T03:51:27.272Z,99.90
2019-02-27T03:54:20.644Z,99.90
2019-02-27T03:56:54.597Z,99.90
2019-02-27T04:04:57.866Z,99.90
2019-02-27T04:07:32.745Z,99.90
2019-02-27T04:12:29.654Z,99.90
2019-02-27T04:14:58.290Z,99.90
2019-02-27T04:19:58.442Z,99.90
2019-02-27T04:22:27.058Z,99.90
2019-02-27T04:24:56.798Z,99.90
2019-02-27T04:29:54.065Z,99.90
2019-02-27T04:32:22.608Z,99.90
2019-02-27T04:37:20.364Z,99.90
2019-02-27T04:39:49.563Z,99.90
2019-02-27T04:42:18.099Z,99.90
2019-02-27T04:44:46.645Z,99.90
2019-02-27T04:47:15.216Z,99.90
2019-02-27T04:57:10.105Z,99.90
2019-02-27T04:59:38.655Z,99.90
2019-02-27T05:02:07.293Z,99.90
2019-02-27T05:07:04.552Z,99.90
2019-02-27T05:12:02.991Z,99.90
2019-02-27T05:16:59.793Z,99.90
2019-02-27T05:19:28.320Z,99.90
2019-02-27T05:21:56.892Z,99.90
2019-02-27T05:24:25.436Z,99.90
2019-02-27T05:26:54.076Z,99.90
2019-02-27T05:29:22.616Z,99.90
2019-02-27T05:31:53.291Z,99.90
2019-02-27T05:34:21.387Z,99.90
2019-02-27T05:36:49.958Z,99.90
2019-02-27T05:41:46.748Z,99.90
2019-02-27T05:54:08.236Z,99.90
2019-02-27T05:56:36.777Z,99.90
2019-02-27T06:08:58.364Z,99.90
2019-02-27T06:11:27.069Z,99.90
2019-02-27T06:13:57.124Z,99.90
2019-02-27T06:16:25.677Z,99.90
2019-02-27T06:18:56.238Z,99.90
2019-02-27T06:21:24.501Z,99.90
2019-02-27T06:31:17.754Z,99.90
2019-02-27T06:33:46.317Z,99.90
2019-02-27T06:43:41.221Z,99.90
2019-02-27T06:46:09.764Z,99.90
2019-02-27T06:51:06.557Z,99.90
2019-02-27T06:56:04.087Z,99.90
2019-02-27T07:01:00.940Z,99.90
2019-02-27T07:03:32.813Z,99.90
2019-02-27T07:05:59.704Z,99.90
2019-02-27T07:08:28.281Z,99.90
2019-02-27T07:10:58.945Z,99.90
2019-02-27T07:15:56.971Z,99.90
2019-02-27T07:18:25.512Z,99.90
2019-02-27T07:28:20.784Z,99.90
2019-02-27T07:30:49.370Z,99.90
2019-02-27T07:33:17.900Z,99.90
2019-02-27T07:35:46.480Z,99.90
2019-02-27T07:38:15.026Z,99.90
2019-02-27T07:40:43.604Z,99.90
2019-02-27T07:45:42.721Z,99.90
2019-02-27T07:48:10.565Z,99.90
2019-02-27T07:50:39.132Z,99.90
2019-02-27T07:53:07.678Z,99.90
2019-02-27T07:55:36.253Z,99.90
2019-02-27T07:58:04.861Z,99.90
2019-02-27T08:00:33.509Z,99.90
2019-02-27T08:03:02.045Z,99.90
2019-02-27T08:05:30.753Z,99.90
2019-02-27T08:07:59.292Z,99.90
2019-02-27T08:10:27.925Z,99.90
2019-02-27T08:12:56.806Z,99.90
2019-02-27T08:17:57.442Z,99.90
2019-02-27T08:22:52.661Z,99.90
2019-02-27T08:25:21.296Z,99.90
2019-02-27T08:27:49.841Z,99.90
2019-02-27T08:30:26.054Z,99.90
2019-02-27T08:35:22.968Z,99.90
2019-02-27T08:37:51.512Z,99.90
2019-02-27T08:40:24.399Z,99.90
2019-02-27T08:42:50.267Z,99.90
2019-02-27T08:45:20.661Z,99.90
2019-02-27T08:47:49.454Z,99.90
2019-02-27T08:50:24.805Z,99.90
2019-02-27T08:52:53.350Z,99.90
2019-02-27T08:55:22.851Z,99.90
2019-02-27T08:57:55.866Z,99.90
2019-02-27T09:00:24.607Z,99.90
2019-02-27T09:07:50.053Z,99.90
2019-02-27T09:10:26.829Z,99.90
2019-02-27T09:13:04.929Z,99.90
2019-02-27T09:17:54.667Z,99.90
2019-02-27T09:20:23.277Z,99.90
2019-02-27T09:22:51.849Z,99.90
2019-02-27T09:25:23.783Z,99.90
2019-02-27T09:27:50.605Z,99.90
2019-02-27T09:30:28.928Z,99.90
2019-02-27T09:35:22.563Z,99.90
2019-02-27T09:37:51.937Z,99.90
2019-02-27T09:40:29.592Z,99.90
2019-02-27T09:42:58.492Z,99.90
2019-02-27T09:45:34.859Z,99.90
2019-02-27T09:48:04.328Z,99.90
2019-02-27T09:50:37.296Z,99.90
2019-02-27T09:53:06.104Z,99.90
2019-02-27T09:58:03.100Z,99.90
2019-02-27T10:00:43.279Z,99.90
2019-02-27T10:05:40.866Z,99.80
2019-02-27T10:08:10.693Z,98.10
2019-02-27T10:10:39.300Z,98.40
2019-02-27T10:13:08.024Z,98.20
2019-02-27T10:15:36.638Z,98.40
2019-02-27T10:18:05.338Z,85.80
2019-02-27T10:20:36.809Z,97.70
2019-02-27T10:23:04.160Z,96.20
2019-02-27T10:25:32.774Z,96.40
2019-02-27T10:28:04.265Z,95.20
2019-02-27T10:30:31.597Z,95.60
2019-02-27T10:33:00.241Z,95.30
2019-02-27T10:35:29.413Z,95.10
2019-02-27T10:37:58.819Z,94.70
2019-02-27T10:40:27.646Z,95.10
2019-02-27T10:42:56.405Z,94.70
2019-02-27T10:47:53.240Z,93.80
2019-02-27T10:50:21.956Z,94.10
2019-02-27T10:52:50.572Z,94.00
2019-02-27T10:55:23.335Z,93.90
2019-02-27T10:57:51.948Z,93.30
2019-02-27T11:00:33.724Z,93.10
2019-02-27T11:03:02.609Z,92.80
2019-02-27T11:05:36.712Z,93.00
2019-02-27T11:08:05.326Z,93.50
2019-02-27T11:10:33.969Z,93.20
2019-02-27T11:13:05.670Z,93.20
2019-02-27T11:18:04.685Z,93.00
2019-02-27T11:20:31.317Z,93.40
2019-02-27T11:22:59.862Z,92.90
2019-02-27T11:25:29.769Z,93.20
2019-02-27T11:27:58.316Z,93.20
2019-02-27T11:30:35.695Z,82.70
2019-02-27T11:33:02.353Z,92.60
2019-02-27T11:35:30.927Z,92.50
2019-02-27T11:37:59.543Z,92.50
2019-02-27T11:40:28.553Z,92.30
2019-02-27T11:42:57.235Z,92.50
2019-02-27T11:45:25.872Z,92.10
2019-02-27T11:47:54.423Z,91.90
2019-02-27T11:50:23.077Z,92.10
2019-02-27T11:52:52.048Z,92.70
2019-02-27T11:57:53.131Z,92.40
2019-02-27T12:00:29.435Z,92.80
2019-02-27T12:05:32.565Z,93.00
2019-02-27T12:10:32.840Z,93.00
2019-02-27T12:13:01.789Z,92.40
2019-02-27T12:18:00.482Z,93.10
2019-02-27T12:20:29.145Z,93.00
2019-02-27T12:22:57.721Z,92.40
2019-02-27T12:25:29.108Z,92.30
2019-02-27T12:27:57.270Z,92.10
2019-02-27T12:30:30.691Z,92.20
2019-02-27T12:32:59.333Z,92.00
2019-02-27T12:35:30.956Z,92.40
2019-02-27T12:37:59.608Z,92.40
2019-02-27T12:42:56.457Z,92.30
2019-02-27T12:45:29.426Z,92.60
2019-02-27T12:47:57.277Z,92.70
2019-02-27T12:50:31.215Z,92.50
2019-02-27T12:52:58.226Z,93.40
2019-02-27T12:55:26.905Z,93.40
2019-02-27T12:57:55.616Z,92.80
2019-02-27T13:00:32.338Z,92.70
2019-02-27T13:03:00.896Z,92.70
2019-02-27T13:05:29.783Z,92.00
2019-02-27T13:07:58.430Z,92.20
2019-02-27T13:10:33.016Z,91.80
2019-02-27T13:12:58.901Z,92.70
2019-02-27T13:15:28.481Z,92.90
2019-02-27T13:17:57.978Z,92.70
2019-02-27T13:20:31.736Z,93.10
2019-02-27T13:23:04.085Z,93.40
2019-02-27T13:25:30.725Z,93.40
2019-02-27T13:27:59.360Z,93.70
2019-02-27T13:30:28.738Z,93.70
2019-02-27T13:33:00.720Z,93.70
2019-02-27T13:35:28.599Z,93.70
2019-02-27T13:37:57.694Z,93.70
2019-02-27T13:40:34.936Z,93.50
2019-02-27T13:43:02.537Z,93.60
2019-02-27T13:45:32.689Z,93.50
2019-02-27T13:48:04.905Z,93.20
2019-02-27T13:50:31.453Z,92.70
2019-02-27T13:53:00.080Z,92.50
2019-02-27T13:55:28.621Z,92.30
2019-02-27T13:57:59.689Z,92.20
2019-02-27T14:00:29.903Z,91.80
2019-02-27T14:02:58.618Z,92.10
2019-02-27T14:05:29.294Z,92.70
2019-02-27T14:07:58.679Z,92.40
2019-02-27T14:10:31.968Z,92.50
2019-02-27T14:13:00.575Z,92.40
2019-02-27T14:15:31.248Z,92.50
2019-02-27T14:17:59.561Z,92.30
2019-02-27T14:20:29.174Z,91.90
2019-02-27T14:22:58.355Z,92.50
2019-02-27T14:25:33.269Z,92.50
2019-02-27T14:28:02.005Z,92.40
2019-02-27T14:30:36.769Z,92.50
2019-02-27T14:33:05.460Z,92.50
2019-02-27T14:35:36.161Z,92.20
2019-02-27T14:38:04.462Z,92.00
2019-02-27T14:40:37.701Z,92.00
2019-02-27T14:45:31.668Z,92.40
2019-02-27T14:48:00.277Z,91.80
2019-02-27T14:50:33.555Z,91.90
2019-02-27T14:52:59.280Z,91.70
2019-02-27T14:55:27.898Z,92.20
2019-02-27T14:57:56.436Z,91.60
2019-02-27T15:00:27.626Z,91.80
2019-02-27T15:02:56.561Z,91.90
2019-02-27T15:05:25.348Z,92.20
2019-02-27T15:07:54.894Z,92.40
2019-02-27T15:12:55.222Z,92.20
2019-02-27T15:15:27.712Z,92.50
2019-02-27T15:17:56.588Z,92.00
2019-02-27T15:20:27.772Z,91.50
2019-02-27T15:22:56.686Z,92.00
2019-02-27T15:25:27.478Z,92.00
2019-02-27T15:27:58.258Z,91.60
2019-02-27T15:30:28.128Z,91.70
2019-02-27T15:32:56.673Z,92.10
2019-02-27T15:35:25.317Z,92.30
2019-02-27T15:37:54.000Z,91.60
2019-02-27T15:40:28.524Z,92.40
2019-02-27T15:42:55.032Z,92.50
2019-02-27T15:47:52.686Z,92.00
2019-02-27T15:50:23.769Z,92.30
2019-02-27T15:52:52.415Z,92.60
2019-02-27T15:55:21.108Z,93.10
2019-02-27T15:57:53.513Z,93.30
2019-02-27T16:00:22.352Z,93.10
2019-02-27T16:02:51.276Z,93.80
2019-02-27T16:05:19.816Z,94.20
2019-02-27T16:10:28.417Z,94.20
2019-02-27T16:13:00.357Z,95.10
2019-02-27T16:15:27.461Z,95.20
2019-02-27T16:17:56.105Z,94.80
2019-02-27T16:20:28.531Z,95.20
2019-02-27T16:25:29.308Z,96.20
2019-02-27T16:27:57.884Z,96.40
2019-02-27T16:30:32.444Z,96.30
2019-02-27T16:32:58.529Z,96.60
2019-02-27T16:35:27.140Z,96.90
2019-02-27T16:37:57.496Z,96.60
2019-02-27T16:40:27.688Z,97.20
2019-02-27T16:42:56.409Z,97.70
2019-02-27T16:45:33.879Z,98.10
2019-02-27T16:48:01.428Z,98.60
2019-02-27T16:50:30.036Z,98.20
2019-02-27T16:52:58.627Z,97.90
2019-02-27T16:55:35.826Z,98.50
2019-02-27T16:58:01.949Z,98.40
2019-02-27T17:00:32.125Z,98.10
2019-02-27T17:03:00.773Z,98.10
2019-02-27T17:05:31.595Z,98.20
2019-02-27T17:08:02.296Z,98.00
2019-02-27T17:10:32.732Z,98.60
2019-02-27T17:13:01.346Z,98.60
2019-02-27T17:15:34.699Z,98.70
2019-02-27T17:18:00.170Z,99.10
2019-02-27T17:20:29.257Z,99.20
2019-02-27T17:22:57.797Z,99.20
2019-02-27T17:25:29.920Z,99.60
2019-02-27T17:27:56.701Z,99.90
2019-02-27T17:30:27.427Z,92.70
2019-02-27T17:32:56.028Z,99.90
2019-02-27T17:37:53.068Z,99.90
2019-02-27T17:40:21.636Z,99.90
2019-02-27T17:42:53.559Z,99.90
2019-02-27T17:45:26.376Z,99.90
2019-02-27T17:50:23.341Z,99.90
2019-02-27T17:52:52.329Z,99.90
2019-02-27T17:55:20.888Z,99.90
2019-02-27T17:57:49.429Z,99.90
2019-02-27T18:00:28.515Z,99.90
2019-02-27T18:02:57.205Z,99.90
2019-02-27T18:05:26.183Z,99.90
2019-02-27T18:10:23.000Z,99.90
2019-02-27T18:12:51.770Z,99.90
2019-02-27T18:15:22.381Z,99.90
2019-02-27T18:17:51.097Z,99.90
2019-02-27T18:20:24.179Z,99.90
2019-02-27T18:22:50.372Z,99.90
2019-02-27T18:25:19.292Z,99.90
2019-02-27T18:27:48.139Z,99.90
2019-02-27T18:30:21.324Z,99.90
2019-02-27T18:32:50.207Z,99.90
2019-02-27T18:35:19.717Z,99.90
2019-02-27T18:37:53.229Z,99.90
2019-02-27T18:40:19.650Z,99.90
2019-02-27T18:42:48.198Z,99.90
2019-02-27T18:45:19.166Z,99.90
2019-02-27T18:47:47.704Z,99.90
2019-02-27T18:50:16.936Z,99.90
2019-02-27T18:52:45.540Z,97.70
2019-02-27T18:55:17.616Z,99.90
2019-02-27T18:57:47.344Z,99.90
2019-02-27T19:00:26.990Z,99.90
2019-02-27T19:03:00.877Z,99.90
2019-02-27T19:05:29.584Z,99.90
2019-02-27T19:07:58.200Z,99.90
2019-02-27T19:10:26.921Z,99.90
2019-02-27T19:12:55.524Z,97.20
2019-02-27T19:15:27.942Z,99.90
2019-02-27T19:17:56.656Z,99.90
2019-02-27T19:23:00.275Z,99.90
2019-02-27T19:25:34.189Z,99.90
2019-02-27T19:27:59.060Z,99.90
2019-02-27T19:30:28.140Z,99.90
2019-02-27T19:33:01.582Z,99.90
2019-02-27T19:35:27.182Z,99.90
2019-02-27T19:37:55.751Z,99.90
2019-02-27T19:40:27.284Z,99.90
2019-02-27T19:43:03.160Z,99.90
2019-02-27T19:45:31.941Z,99.90
2019-02-27T19:48:00.585Z,99.90
2019-02-27T19:50:29.410Z,99.90
2019-02-27T19:53:03.331Z,99.90
2019-02-27T19:55:28.292Z,99.90
2019-02-27T19:57:56.869Z,99.90
2019-02-27T20:03:01.109Z,99.90
2019-02-27T20:05:29.608Z,99.90
2019-02-27T20:07:58.314Z,99.90
2019-02-27T20:10:30.166Z,99.90
2019-02-27T20:12:57.560Z,99.90
2019-02-27T20:15:26.836Z,99.90
2019-02-27T20:20:24.273Z,99.90
2019-02-27T20:22:54.804Z,99.90
2019-02-27T20:25:25.450Z,99.90
2019-02-27T20:27:54.256Z,99.90
2019-02-27T20:30:24.106Z,99.90
2019-02-27T20:32:52.921Z,99.90
2019-02-27T20:35:21.980Z,99.90
2019-02-27T20:40:20.181Z,99.90
2019-02-27T20:42:50.784Z,99.90
2019-02-27T20:45:23.684Z,99.90
2019-02-27T20:47:57.712Z,99.90
2019-02-27T20:50:34.713Z,99.90
2019-02-27T20:55:31.826Z,99.90
2019-02-27T20:58:00.499Z,99.90
2019-02-27T21:00:29.147Z,99.90
2019-02-27T21:08:00.927Z,99.90
2019-02-27T21:10:29.621Z,99.90
2019-02-27T21:12:58.228Z,99.90
2019-02-27T21:17:58.543Z,99.90
2019-02-27T21:20:27.483Z,99.90
2019-02-27T21:25:24.400Z,99.90
2019-02-27T21:27:52.944Z,99.90
2019-02-27T21:30:22.825Z,99.90
2019-02-27T21:32:51.369Z,99.90
2019-02-27T21:35:19.937Z,99.90
2019-02-27T21:40:17.964Z,99.90
2019-02-27T21:45:16.457Z,99.90
2019-02-27T21:47:45.337Z,99.90
2019-02-27T21:50:19.073Z,99.90
2019-02-27T21:55:16.072Z,99.90
2019-02-27T21:57:44.785Z,99.90
2019-02-27T22:00:24.779Z,99.90
2019-02-27T22:02:54.761Z,99.90
2019-02-27T22:05:23.573Z,99.90
2019-02-27T22:07:52.435Z,99.90
2019-02-27T22:10:21.339Z,99.90
2019-02-27T22:12:50.117Z,99.90
2019-02-27T22:15:31.156Z,99.90
2019-02-27T22:17:59.769Z,99.90
2019-02-27T22:20:28.513Z,99.90
2019-02-27T22:25:30.228Z,99.90
2019-02-27T22:27:55.636Z,99.90
2019-02-27T22:30:24.436Z,99.90
2019-02-27T22:32:53.077Z,99.90
2019-02-27T22:35:21.693Z,99.90
2019-02-27T22:37:52.479Z,99.90
2019-02-27T22:40:24.747Z,99.90
2019-02-27T22:42:53.320Z,99.90
2019-02-27T22:45:21.944Z,99.90
2019-02-27T22:47:53.925Z,99.90
2019-02-27T22:50:21.599Z,99.90
2019-02-27T22:52:54.265Z,99.90
2019-02-27T22:55:20.814Z,99.90
2019-02-27T22:57:49.329Z,99.90
2019-02-27T23:00:56.526Z,99.90
2019-02-27T23:03:28.557Z,99.90
2019-02-27T23:08:25.548Z,99.90
2019-02-27T23:10:54.263Z,99.90
2019-02-27T23:13:22.901Z,99.90
2019-02-27T23:15:52.080Z,99.90
2019-02-27T23:18:20.648Z,99.90
2019-02-27T23:20:52.408Z,99.90
2019-02-27T23:23:19.750Z,99.90
2019-02-27T23:28:16.538Z,99.90
2019-02-27T23:30:46.990Z,99.90
2019-02-27T23:33:15.300Z,99.90
2019-02-27T23:35:43.846Z,99.90
2019-02-27T23:38:13.331Z,99.90
2019-02-27T23:40:41.880Z,99.90
2019-02-27T23:43:10.443Z,99.90
2019-02-27T23:45:41.448Z,99.90
2019-02-27T23:48:09.286Z,99.90
2019-02-27T23:53:06.081Z,99.90
2019-02-27T23:55:34.624Z,99.90
2019-02-27T23:58:03.263Z,99.90
